sensor_id;sensor_type;location;lat;lon;timestamp;pressure;altitude;pressure_sealevel;temperature;humidity
73645;BME280;61940;42.136;24.534;2022-08-03T00:01:41;99337.33;;;27.83;36.84
73645;BME280;61940;42.136;24.534;2022-08-03T00:04:07;99340.97;;;27.80;36.94
73645;BME280;61940;42.136;24.534;2022-08-03T00:06:33;99341.78;;;27.80;36.92
73645;BME280;61940;42.136;24.534;2022-08-03T00:09:00;99338.98;;;27.77;37.06
73645;BME280;61940;42.136;24.534;2022-08-03T00:11:26;99348.66;;;27.72;37.06
73645;BME280;61940;42.136;24.534;2022-08-03T00:13:52;99345.85;;;27.74;37.20
73645;BME280;61940;42.136;24.534;2022-08-03T00:16:18;99351.08;;;27.74;37.47
73645;BME280;61940;42.136;24.534;2022-08-03T00:18:44;99343.11;;;27.65;37.47
73645;BME280;61940;42.136;24.534;2022-08-03T00:21:11;99343.73;;;27.61;38.27
73645;BME280;61940;42.136;24.534;2022-08-03T00:23:37;99347.95;;;27.61;38.33
73645;BME280;61940;42.136;24.534;2022-08-03T00:26:03;99340.94;;;27.57;38.22
73645;BME280;61940;42.136;24.534;2022-08-03T00:28:29;99345.39;;;27.55;38.56
73645;BME280;61940;42.136;24.534;2022-08-03T00:30:55;99348.22;;;27.50;38.58
73645;BME280;61940;42.136;24.534;2022-08-03T00:33:22;99343.63;;;27.48;38.54
73645;BME280;61940;42.136;24.534;2022-08-03T00:35:49;99337.77;;;27.50;38.51
73645;BME280;61940;42.136;24.534;2022-08-03T00:38:15;99343.44;;;27.45;38.45
73645;BME280;61940;42.136;24.534;2022-08-03T00:40:41;99347.64;;;27.39;38.63
73645;BME280;61940;42.136;24.534;2022-08-03T00:43:07;99341.20;;;27.43;38.46
73645;BME280;61940;42.136;24.534;2022-08-03T00:45:34;99347.64;;;27.47;38.33
73645;BME280;61940;42.136;24.534;2022-08-03T00:48:00;99344.85;;;27.45;38.31
73645;BME280;61940;42.136;24.534;2022-08-03T00:50:27;99341.82;;;27.40;38.42
73645;BME280;61940;42.136;24.534;2022-08-03T00:52:53;99336.82;;;27.38;38.36
73645;BME280;61940;42.136;24.534;2022-08-03T00:55:18;99342.24;;;27.37;38.29
73645;BME280;61940;42.136;24.534;2022-08-03T00:57:45;99339.47;;;27.32;38.18
73645;BME280;61940;42.136;24.534;2022-08-03T01:00:12;99333.05;;;27.26;38.14
73645;BME280;61940;42.136;24.534;2022-08-03T01:02:38;99325.80;;;27.30;37.96
73645;BME280;61940;42.136;24.534;2022-08-03T01:05:04;99332.25;;;27.27;37.96
73645;BME280;61940;42.136;24.534;2022-08-03T01:07:40;99332.65;;;27.26;37.84
73645;BME280;61940;42.136;24.534;2022-08-03T01:10:05;99327.05;;;27.24;37.87
73645;BME280;61940;42.136;24.534;2022-08-03T01:12:34;99336.73;;;27.18;37.93
73645;BME280;61940;42.136;24.534;2022-08-03T01:14:59;99337.79;;;27.08;38.08
73645;BME280;61940;42.136;24.534;2022-08-03T01:17:27;99351.70;;;26.99;38.27
73645;BME280;61940;42.136;24.534;2022-08-03T01:19:55;99349.27;;;27.01;38.31
73645;BME280;61940;42.136;24.534;2022-08-03T01:27:42;99355.48;;;27.04;38.58
73645;BME280;61940;42.136;24.534;2022-08-03T01:30:05;99351.70;;;26.99;38.85
73645;BME280;61940;42.136;24.534;2022-08-03T01:32:40;99344.05;;;26.96;39.18
73645;BME280;61940;42.136;24.534;2022-08-03T01:35:10;99339.84;;;26.92;38.91
73645;BME280;61940;42.136;24.534;2022-08-03T01:37:39;99346.70;;;26.91;39.16
73645;BME280;61940;42.136;24.534;2022-08-03T01:40:04;99346.28;;;26.89;39.08
73645;BME280;61940;42.136;24.534;2022-08-03T01:42:30;99336.46;;;26.87;38.97
73645;BME280;61940;42.136;24.534;2022-08-03T01:44:56;99343.27;;;26.90;38.88
73645;BME280;61940;42.136;24.534;2022-08-03T01:47:23;99343.88;;;26.86;38.86
73645;BME280;61940;42.136;24.534;2022-08-03T01:49:49;99341.72;;;26.82;38.80
73645;BME280;61940;42.136;24.534;2022-08-03T01:52:17;99345.30;;;26.88;38.70
73645;BME280;61940;42.136;24.534;2022-08-03T01:54:43;99349.52;;;26.82;38.77
73645;BME280;61940;42.136;24.534;2022-08-03T01:57:08;99344.91;;;26.78;38.82
73645;BME280;61940;42.136;24.534;2022-08-03T01:59:35;99342.70;;;26.73;39.01
73645;BME280;61940;42.136;24.534;2022-08-03T02:02:01;99352.34;;;26.73;39.00
73645;BME280;61940;42.136;24.534;2022-08-03T02:04:27;99346.75;;;26.68;39.11
73645;BME280;61940;42.136;24.534;2022-08-03T02:06:53;99348.93;;;26.74;38.96
73645;BME280;61940;42.136;24.534;2022-08-03T02:09:20;99352.56;;;26.67;39.18
73645;BME280;61940;42.136;24.534;2022-08-03T02:11:46;99354.36;;;26.66;39.26
73645;BME280;61940;42.136;24.534;2022-08-03T02:14:12;99353.98;;;26.64;39.27
73645;BME280;61940;42.136;24.534;2022-08-03T02:16:38;99352.56;;;26.62;39.28
73645;BME280;61940;42.136;24.534;2022-08-03T02:19:05;99348.75;;;26.62;39.30
73645;BME280;61940;42.136;24.534;2022-08-03T02:21:31;99350.38;;;26.65;39.17
73645;BME280;61940;42.136;24.534;2022-08-03T02:23:57;99352.98;;;26.64;39.21
73645;BME280;61940;42.136;24.534;2022-08-03T02:26:23;99351.38;;;26.65;39.29
73645;BME280;61940;42.136;24.534;2022-08-03T02:28:51;99349.73;;;26.69;39.12
73645;BME280;61940;42.136;24.534;2022-08-03T02:31:16;99350.14;;;26.69;39.11
73645;BME280;61940;42.136;24.534;2022-08-03T02:33:43;99360.20;;;26.69;39.01
73645;BME280;61940;42.136;24.534;2022-08-03T02:36:08;99360.98;;;26.69;38.96
73645;BME280;61940;42.136;24.534;2022-08-03T02:38:35;99355.99;;;26.65;38.95
73645;BME280;61940;42.136;24.534;2022-08-03T02:41:02;99357.81;;;26.60;39.11
73645;BME280;61940;42.136;24.534;2022-08-03T02:43:27;99357.41;;;26.58;39.13
73645;BME280;61940;42.136;24.534;2022-08-03T02:45:53;99361.02;;;26.57;39.27
73645;BME280;61940;42.136;24.534;2022-08-03T02:48:20;99359.02;;;26.54;39.41
73645;BME280;61940;42.136;24.534;2022-08-03T02:50:45;99359.04;;;26.52;39.46
73645;BME280;61940;42.136;24.534;2022-08-03T02:53:11;99357.43;;;26.47;39.45
73645;BME280;61940;42.136;24.534;2022-08-03T02:55:38;99357.03;;;26.47;39.68
73645;BME280;61940;42.136;24.534;2022-08-03T02:58:04;99365.05;;;26.47;39.75
73645;BME280;61940;42.136;24.534;2022-08-03T03:00:30;99362.66;;;26.44;39.64
73645;BME280;61940;42.136;24.534;2022-08-03T03:02:57;99366.66;;;26.43;39.65
73645;BME280;61940;42.136;24.534;2022-08-03T03:05:24;99374.89;;;26.43;39.61
73645;BME280;61940;42.136;24.534;2022-08-03T03:07:50;99378.70;;;26.43;39.74
73645;BME280;61940;42.136;24.534;2022-08-03T03:10:16;99375.11;;;26.41;39.86
73645;BME280;61940;42.136;24.534;2022-08-03T03:12:42;99384.34;;;26.34;39.99
73645;BME280;61940;42.136;24.534;2022-08-03T03:15:08;99375.92;;;26.27;40.38
73645;BME280;61940;42.136;24.534;2022-08-03T03:17:35;99393.17;;;26.24;40.58
73645;BME280;61940;42.136;24.534;2022-08-03T03:20:01;99385.55;;;26.26;40.66
73645;BME280;61940;42.136;24.534;2022-08-03T03:22:27;99383.14;;;26.19;40.67
73645;BME280;61940;42.136;24.534;2022-08-03T03:24:53;99386.75;;;26.23;40.62
73645;BME280;61940;42.136;24.534;2022-08-03T03:27:20;99386.77;;;26.18;40.61
73645;BME280;61940;42.136;24.534;2022-08-03T03:29:46;99383.52;;;26.14;40.65
73645;BME280;61940;42.136;24.534;2022-08-03T03:32:13;99381.10;;;26.16;40.53
73645;BME280;61940;42.136;24.534;2022-08-03T03:34:39;99381.11;;;26.07;40.71
73645;BME280;61940;42.136;24.534;2022-08-03T03:37:05;99383.91;;;26.06;40.71
73645;BME280;61940;42.136;24.534;2022-08-03T03:39:32;99378.69;;;26.06;40.66
73645;BME280;61940;42.136;24.534;2022-08-03T03:41:58;99382.11;;;26.11;40.60
73645;BME280;61940;42.136;24.534;2022-08-03T03:44:26;99390.33;;;26.10;40.67
73645;BME280;61940;42.136;24.534;2022-08-03T03:46:52;99397.55;;;26.12;40.59
73645;BME280;61940;42.136;24.534;2022-08-03T03:49:18;99398.55;;;26.12;40.46
73645;BME280;61940;42.136;24.534;2022-08-03T03:51:45;99413.84;;;26.17;40.32
73645;BME280;61940;42.136;24.534;2022-08-03T03:54:11;99409.39;;;26.14;40.28
73645;BME280;61940;42.136;24.534;2022-08-03T03:56:37;99423.81;;;26.09;40.32
73645;BME280;61940;42.136;24.534;2022-08-03T03:59:03;99423.63;;;26.09;40.29
73645;BME280;61940;42.136;24.534;2022-08-03T04:01:30;99416.63;;;26.11;40.22
73645;BME280;61940;42.136;24.534;2022-08-03T04:03:56;99421.23;;;26.04;40.53
73645;BME280;61940;42.136;24.534;2022-08-03T04:06:22;99417.02;;;26.04;40.55
73645;BME280;61940;42.136;24.534;2022-08-03T04:08:54;99421.41;;;26.05;40.81
73645;BME280;61940;42.136;24.534;2022-08-03T04:11:39;99432.05;;;25.97;40.92
73645;BME280;61940;42.136;24.534;2022-08-03T04:14:07;99424.22;;;26.00;40.88
73645;BME280;61940;42.136;24.534;2022-08-03T04:16:33;99427.25;;;26.05;40.89
73645;BME280;61940;42.136;24.534;2022-08-03T04:19:00;99425.84;;;26.08;40.91
73645;BME280;61940;42.136;24.534;2022-08-03T04:21:24;99426.03;;;26.09;40.91
73645;BME280;61940;42.136;24.534;2022-08-03T04:23:52;99437.71;;;26.20;40.75
73645;BME280;61940;42.136;24.534;2022-08-03T04:26:18;99444.13;;;26.40;40.39
73645;BME280;61940;42.136;24.534;2022-08-03T04:28:43;99439.67;;;26.73;39.68
73645;BME280;61940;42.136;24.534;2022-08-03T04:31:13;99438.92;;;27.38;38.46
73645;BME280;61940;42.136;24.534;2022-08-03T04:33:39;99436.36;;;28.07;37.08
73645;BME280;61940;42.136;24.534;2022-08-03T04:36:06;99435.00;;;28.50;36.14
73645;BME280;61940;42.136;24.534;2022-08-03T04:38:32;99427.69;;;28.56;35.88
73645;BME280;61940;42.136;24.534;2022-08-03T04:40:58;99433.30;;;28.39;36.19
73645;BME280;61940;42.136;24.534;2022-08-03T04:43:24;99432.51;;;28.09;36.61
73645;BME280;61940;42.136;24.534;2022-08-03T04:45:50;99439.85;;;28.23;36.34
73645;BME280;61940;42.136;24.534;2022-08-03T04:48:16;99440.64;;;28.74;35.44
73645;BME280;61940;42.136;24.534;2022-08-03T04:50:42;99445.03;;;28.99;34.92
73645;BME280;61940;42.136;24.534;2022-08-03T04:53:09;99446.73;;;29.26;34.40
73645;BME280;61940;42.136;24.534;2022-08-03T04:55:35;99448.05;;;28.96;34.97
73645;BME280;61940;42.136;24.534;2022-08-03T04:58:02;99449.84;;;29.17;34.79
73645;BME280;61940;42.136;24.534;2022-08-03T05:00:28;99445.48;;;29.10;34.82
73645;BME280;61940;42.136;24.534;2022-08-03T05:02:54;99455.98;;;28.91;35.09
73645;BME280;61940;42.136;24.534;2022-08-03T05:05:20;99451.98;;;28.68;35.63
73645;BME280;61940;42.136;24.534;2022-08-03T05:07:46;99449.92;;;28.47;36.08
73645;BME280;61940;42.136;24.534;2022-08-03T05:10:13;99459.52;;;28.30;36.29
73645;BME280;61940;42.136;24.534;2022-08-03T05:12:43;99459.91;;;28.08;36.79
73645;BME280;61940;42.136;24.534;2022-08-03T05:15:09;99457.44;;;28.12;36.86
73645;BME280;61940;42.136;24.534;2022-08-03T05:17:35;99453.45;;;28.03;37.04
73645;BME280;61940;42.136;24.534;2022-08-03T05:20:02;99459.13;;;27.97;37.06
73645;BME280;61940;42.136;24.534;2022-08-03T05:22:29;99455.39;;;27.83;37.37
73645;BME280;61940;42.136;24.534;2022-08-03T05:24:55;99460.80;;;27.88;37.32
73645;BME280;61940;42.136;24.534;2022-08-03T05:27:21;99462.43;;;27.83;37.37
73645;BME280;61940;42.136;24.534;2022-08-03T05:29:48;99465.47;;;27.81;37.41
73645;BME280;61940;42.136;24.534;2022-08-03T05:32:13;99470.88;;;27.83;37.46
73645;BME280;61940;42.136;24.534;2022-08-03T05:34:39;99464.17;;;27.93;37.22
73645;BME280;61940;42.136;24.534;2022-08-03T05:37:06;99469.97;;;28.01;37.14
73645;BME280;61940;42.136;24.534;2022-08-03T05:39:32;99472.64;;;27.89;37.28
73645;BME280;61940;42.136;24.534;2022-08-03T05:41:58;99470.44;;;27.90;37.30
73645;BME280;61940;42.136;24.534;2022-08-03T05:44:24;99472.63;;;27.94;37.39
73645;BME280;61940;42.136;24.534;2022-08-03T05:46:51;99476.59;;;28.04;37.08
73645;BME280;61940;42.136;24.534;2022-08-03T05:49:17;99480.60;;;28.10;37.06
73645;BME280;61940;42.136;24.534;2022-08-03T05:51:44;99475.58;;;28.11;36.99
73645;BME280;61940;42.136;24.534;2022-08-03T05:54:10;99477.56;;;28.14;37.06
73645;BME280;61940;42.136;24.534;2022-08-03T05:56:36;99480.73;;;28.20;36.88
73645;BME280;61940;42.136;24.534;2022-08-03T05:59:02;99488.31;;;28.30;36.78
73645;BME280;61940;42.136;24.534;2022-08-03T06:01:28;99492.41;;;28.22;36.78
73645;BME280;61940;42.136;24.534;2022-08-03T06:03:55;99490.83;;;28.45;36.83
73645;BME280;61940;42.136;24.534;2022-08-03T06:06:21;99487.37;;;29.66;34.22
73645;BME280;61940;42.136;24.534;2022-08-03T06:08:47;99480.63;;;31.14;31.64
73645;BME280;61940;42.136;24.534;2022-08-03T06:11:13;99477.23;;;32.35;29.68
73645;BME280;61940;42.136;24.534;2022-08-03T06:13:40;99475.75;;;33.38;27.99
73645;BME280;61940;42.136;24.534;2022-08-03T06:16:06;99477.58;;;34.13;26.84
73645;BME280;61940;42.136;24.534;2022-08-03T06:18:32;99474.81;;;34.73;26.00
73645;BME280;61940;42.136;24.534;2022-08-03T06:20:58;99473.55;;;35.21;25.59
73645;BME280;61940;42.136;24.534;2022-08-03T06:23:24;99472.02;;;35.68;24.71
73645;BME280;61940;42.136;24.534;2022-08-03T06:25:51;99483.23;;;36.14;24.16
73645;BME280;61940;42.136;24.534;2022-08-03T06:28:17;99482.99;;;36.85;23.17
73645;BME280;61940;42.136;24.534;2022-08-03T06:30:43;99482.44;;;36.97;22.92
73645;BME280;61940;42.136;24.534;2022-08-03T06:33:09;99487.33;;;36.74;23.20
73645;BME280;61940;42.136;24.534;2022-08-03T06:35:36;99483.24;;;36.98;22.87
73645;BME280;61940;42.136;24.534;2022-08-03T06:38:02;99482.39;;;35.95;24.05
73645;BME280;61940;42.136;24.534;2022-08-03T06:40:28;99482.12;;;34.36;26.13
73645;BME280;61940;42.136;24.534;2022-08-03T06:42:55;99487.08;;;33.75;27.10
73645;BME280;61940;42.136;24.534;2022-08-03T06:45:21;99485.17;;;33.71;26.99
73645;BME280;61940;42.136;24.534;2022-08-03T06:47:47;99486.59;;;33.64;27.04
73645;BME280;61940;42.136;24.534;2022-08-03T06:50:14;99486.80;;;33.63;26.91
73645;BME280;61940;42.136;24.534;2022-08-03T06:52:40;99487.69;;;33.46;27.36
73645;BME280;61940;42.136;24.534;2022-08-03T06:55:07;99478.36;;;33.10;27.71
73645;BME280;61940;42.136;24.534;2022-08-03T06:57:33;99489.97;;;33.00;28.06
73645;BME280;61940;42.136;24.534;2022-08-03T07:00:01;99490.80;;;32.92;28.22
73645;BME280;61940;42.136;24.534;2022-08-03T07:02:27;99481.94;;;33.13;27.96
73645;BME280;61940;42.136;24.534;2022-08-03T07:04:54;99478.42;;;33.29;27.69
73645;BME280;61940;42.136;24.534;2022-08-03T07:07:20;99487.78;;;33.57;26.90
73645;BME280;61940;42.136;24.534;2022-08-03T07:09:46;99487.20;;;34.03;26.65
73645;BME280;61940;42.136;24.534;2022-08-03T07:12:14;99487.77;;;35.03;25.11
73645;BME280;61940;42.136;24.534;2022-08-03T07:14:40;99486.77;;;35.86;24.10
73645;BME280;61940;42.136;24.534;2022-08-03T07:17:07;99481.05;;;36.59;23.10
73645;BME280;61940;42.136;24.534;2022-08-03T07:19:33;99481.38;;;37.17;22.13
73645;BME280;61940;42.136;24.534;2022-08-03T07:22:00;99478.80;;;37.78;21.55
73645;BME280;61940;42.136;24.534;2022-08-03T07:24:26;99481.17;;;38.14;21.00
73645;BME280;61940;42.136;24.534;2022-08-03T07:26:52;99483.94;;;38.98;20.58
73645;BME280;61940;42.136;24.534;2022-08-03T07:29:19;99483.51;;;39.79;19.18
73645;BME280;61940;42.136;24.534;2022-08-03T07:31:46;99479.05;;;39.86;19.05
73645;BME280;61940;42.136;24.534;2022-08-03T07:34:12;99481.66;;;40.01;18.93
73645;BME280;61940;42.136;24.534;2022-08-03T07:36:39;99485.71;;;39.87;19.03
73645;BME280;61940;42.136;24.534;2022-08-03T07:39:05;99488.14;;;39.84;19.02
73645;BME280;61940;42.136;24.534;2022-08-03T07:41:32;99490.28;;;39.33;19.19
73645;BME280;61940;42.136;24.534;2022-08-03T07:43:58;99486.12;;;39.61;19.28
73645;BME280;61940;42.136;24.534;2022-08-03T07:46:24;99485.84;;;39.66;19.15
73645;BME280;61940;42.136;24.534;2022-08-03T07:48:51;99495.19;;;40.13;18.88
73645;BME280;61940;42.136;24.534;2022-08-03T07:51:17;99487.79;;;40.09;18.70
73645;BME280;61940;42.136;24.534;2022-08-03T07:53:43;99488.00;;;38.33;20.33
73645;BME280;61940;42.136;24.534;2022-08-03T07:56:10;99494.12;;;38.43;20.80
73645;BME280;61940;42.136;24.534;2022-08-03T07:58:36;99492.30;;;36.47;22.99
73645;BME280;61940;42.136;24.534;2022-08-03T08:01:02;99495.48;;;35.33;24.63
73645;BME280;61940;42.136;24.534;2022-08-03T08:03:28;99495.45;;;34.64;25.71
73645;BME280;61940;42.136;24.534;2022-08-03T08:05:54;99493.75;;;34.29;25.98
73645;BME280;61940;42.136;24.534;2022-08-03T08:08:21;99498.16;;;34.43;26.20
73645;BME280;61940;42.136;24.534;2022-08-03T08:10:47;99496.89;;;35.11;25.66
73645;BME280;61940;42.136;24.534;2022-08-03T08:13:13;99495.36;;;34.54;26.45
73645;BME280;61940;42.136;24.534;2022-08-03T08:15:40;99493.21;;;34.26;26.57
73645;BME280;61940;42.136;24.534;2022-08-03T08:18:06;99495.66;;;34.20;26.92
73645;BME280;61940;42.136;24.534;2022-08-03T08:20:34;99497.03;;;33.82;27.54
73645;BME280;61940;42.136;24.534;2022-08-03T08:23:00;99496.55;;;33.19;28.44
73645;BME280;61940;42.136;24.534;2022-08-03T08:25:25;99496.36;;;33.70;28.23
73645;BME280;61940;42.136;24.534;2022-08-03T08:27:51;99497.63;;;33.89;27.84
73645;BME280;61940;42.136;24.534;2022-08-03T08:30:18;99492.27;;;34.04;27.51
73645;BME280;61940;42.136;24.534;2022-08-03T08:32:44;99494.17;;;33.26;28.87
73645;BME280;61940;42.136;24.534;2022-08-03T08:35:10;99494.09;;;34.19;27.38
73645;BME280;61940;42.136;24.534;2022-08-03T08:37:36;99491.70;;;34.42;27.01
73645;BME280;61940;42.136;24.534;2022-08-03T08:40:03;99493.70;;;34.04;27.62
73645;BME280;61940;42.136;24.534;2022-08-03T08:42:30;99494.16;;;34.02;27.31
73645;BME280;61940;42.136;24.534;2022-08-03T08:44:55;99499.48;;;34.34;27.34
73645;BME280;61940;42.136;24.534;2022-08-03T08:47:24;99500.27;;;34.78;26.35
73645;BME280;61940;42.136;24.534;2022-08-03T08:49:52;99507.08;;;34.81;26.79
73645;BME280;61940;42.136;24.534;2022-08-03T08:52:18;99496.73;;;35.38;25.91
73645;BME280;61940;42.136;24.534;2022-08-03T08:54:44;99496.88;;;35.29;26.18
73645;BME280;61940;42.136;24.534;2022-08-03T08:57:10;99493.28;;;35.33;25.71
73645;BME280;61940;42.136;24.534;2022-08-03T08:59:36;99491.99;;;36.25;24.97
73645;BME280;61940;42.136;24.534;2022-08-03T09:02:03;99487.11;;;36.35;24.34
73645;BME280;61940;42.136;24.534;2022-08-03T09:04:29;99489.20;;;36.63;23.96
73645;BME280;61940;42.136;24.534;2022-08-03T09:06:55;99492.81;;;37.08;23.99
73645;BME280;61940;42.136;24.534;2022-08-03T09:09:22;99491.41;;;36.88;24.41
73645;BME280;61940;42.136;24.534;2022-08-03T09:11:49;99491.16;;;36.94;24.08
73645;BME280;61940;42.136;24.534;2022-08-03T09:14:15;99484.55;;;37.24;23.92
73645;BME280;61940;42.136;24.534;2022-08-03T09:19:14;99483.27;;;37.43;23.69
73645;BME280;61940;42.136;24.534;2022-08-03T09:21:40;99480.89;;;36.62;24.32
73645;BME280;61940;42.136;24.534;2022-08-03T09:24:07;99478.70;;;36.11;25.31
73645;BME280;61940;42.136;24.534;2022-08-03T09:26:33;99478.97;;;35.67;26.06
73645;BME280;61940;42.136;24.534;2022-08-03T09:29:00;99476.44;;;35.47;26.34
73645;BME280;61940;42.136;24.534;2022-08-03T09:31:30;99479.56;;;34.53;27.34
73645;BME280;61940;42.136;24.534;2022-08-03T09:33:55;99475.81;;;33.22;28.71
73645;BME280;61940;42.136;24.534;2022-08-03T09:39:01;99470.33;;;33.92;28.51
73645;BME280;61940;42.136;24.534;2022-08-03T09:41:27;99473.11;;;34.57;27.01
73645;BME280;61940;42.136;24.534;2022-08-03T09:43:54;99465.61;;;35.49;26.31
73645;BME280;61940;42.136;24.534;2022-08-03T09:46:20;99474.41;;;35.31;26.08
73645;BME280;61940;42.136;24.534;2022-08-03T09:48:46;99470.11;;;35.70;25.85
73645;BME280;61940;42.136;24.534;2022-08-03T09:51:12;99463.34;;;35.54;24.86
73645;BME280;61940;42.136;24.534;2022-08-03T09:53:42;99460.50;;;35.54;25.41
73645;BME280;61940;42.136;24.534;2022-08-03T09:56:08;99461.31;;;35.97;25.65
73645;BME280;61940;42.136;24.534;2022-08-03T09:58:38;99461.41;;;36.10;25.06
73645;BME280;61940;42.136;24.534;2022-08-03T10:01:02;99453.44;;;35.90;25.35
73645;BME280;61940;42.136;24.534;2022-08-03T10:03:28;99454.23;;;34.80;26.60
73645;BME280;61940;42.136;24.534;2022-08-03T10:05:53;99456.03;;;33.81;27.64
73645;BME280;61940;42.136;24.534;2022-08-03T10:08:19;99452.48;;;33.56;28.23
73645;BME280;61940;42.136;24.534;2022-08-03T10:10:47;99452.55;;;33.62;28.78
73645;BME280;61940;42.136;24.534;2022-08-03T10:13:12;99446.22;;;32.91;29.25
73645;BME280;61940;42.136;24.534;2022-08-03T10:15:38;99441.58;;;33.05;29.03
73645;BME280;61940;42.136;24.534;2022-08-03T10:18:05;99438.67;;;33.07;29.06
73645;BME280;61940;42.136;24.534;2022-08-03T10:20:31;99435.57;;;33.18;29.59
73645;BME280;61940;42.136;24.534;2022-08-03T10:22:57;99439.09;;;33.15;29.62
73645;BME280;61940;42.136;24.534;2022-08-03T10:25:23;99431.53;;;32.94;29.36
73645;BME280;61940;42.136;24.534;2022-08-03T10:27:50;99439.91;;;32.77;30.31
73645;BME280;61940;42.136;24.534;2022-08-03T10:30:16;99431.08;;;32.59;30.41
73645;BME280;61940;42.136;24.534;2022-08-03T10:32:42;99434.22;;;32.53;30.39
73645;BME280;61940;42.136;24.534;2022-08-03T10:35:11;99429.72;;;32.15;30.24
73645;BME280;61940;42.136;24.534;2022-08-03T10:37:40;99435.16;;;31.80;30.80
73645;BME280;61940;42.136;24.534;2022-08-03T10:40:03;99438.36;;;31.64;31.15
73645;BME280;61940;42.136;24.534;2022-08-03T10:42:29;99435.17;;;31.62;31.60
73645;BME280;61940;42.136;24.534;2022-08-03T10:45:03;99438.38;;;31.90;31.37
73645;BME280;61940;42.136;24.534;2022-08-03T10:47:26;99432.38;;;31.78;30.97
73645;BME280;61940;42.136;24.534;2022-08-03T10:49:53;99433.72;;;31.82;31.12
73645;BME280;61940;42.136;24.534;2022-08-03T10:52:19;99428.56;;;32.21;30.61
73645;BME280;61940;42.136;24.534;2022-08-03T10:54:45;99427.95;;;32.21;29.86
73645;BME280;61940;42.136;24.534;2022-08-03T10:58:01;99418.41;;;32.54;29.15
73645;BME280;61940;42.136;24.534;2022-08-03T11:00:11;99412.82;;;32.50;30.09
73645;BME280;61940;42.136;24.534;2022-08-03T11:07:41;99411.41;;;32.00;30.59
73645;BME280;61940;42.136;24.534;2022-08-03T11:10:07;99413.41;;;31.85;30.61
73645;BME280;61940;42.136;24.534;2022-08-03T11:12:34;99407.55;;;31.84;31.12
73645;BME280;61940;42.136;24.534;2022-08-03T11:15:05;99402.56;;;32.08;30.98
73645;BME280;61940;42.136;24.534;2022-08-03T11:17:31;99400.63;;;32.29;30.52
73645;BME280;61940;42.136;24.534;2022-08-03T11:19:57;99393.27;;;32.54;30.73
73645;BME280;61940;42.136;24.534;2022-08-03T11:22:23;99393.23;;;32.72;29.91
73645;BME280;61940;42.136;24.534;2022-08-03T11:24:55;99389.53;;;32.73;29.59
73645;BME280;61940;42.136;24.534;2022-08-03T11:27:16;99381.52;;;32.78;29.64
73645;BME280;61940;42.136;24.534;2022-08-03T11:32:47;99382.76;;;32.62;28.68
73645;BME280;61940;42.136;24.534;2022-08-03T11:35:05;99378.72;;;32.37;29.86
73645;BME280;61940;42.136;24.534;2022-08-03T11:39:42;99374.03;;;32.39;29.48
73645;BME280;61940;42.136;24.534;2022-08-03T11:42:44;99370.86;;;32.43;29.46
73645;BME280;61940;42.136;24.534;2022-08-03T11:44:55;99365.31;;;32.54;29.18
73645;BME280;61940;42.136;24.534;2022-08-03T11:47:21;99369.03;;;32.43;29.12
73645;BME280;61940;42.136;24.534;2022-08-03T11:49:47;99360.37;;;32.58;29.51
73645;BME280;61940;42.136;24.534;2022-08-03T11:52:13;99366.69;;;32.72;29.29
73645;BME280;61940;42.136;24.534;2022-08-03T11:54:39;99365.12;;;32.84;28.70
73645;BME280;61940;42.136;24.534;2022-08-03T11:57:06;99365.67;;;32.64;29.30
73645;BME280;61940;42.136;24.534;2022-08-03T11:59:32;99364.45;;;33.00;29.04
73645;BME280;61940;42.136;24.534;2022-08-03T12:04:30;99364.77;;;33.58;28.10
73645;BME280;61940;42.136;24.534;2022-08-03T12:06:58;99362.83;;;33.43;28.27
73645;BME280;61940;42.136;24.534;2022-08-03T12:09:23;99363.49;;;33.53;28.18
73645;BME280;61940;42.136;24.534;2022-08-03T12:11:50;99355.55;;;33.60;28.12
73645;BME280;61940;42.136;24.534;2022-08-03T12:14:16;99355.76;;;33.74;28.07
73645;BME280;61940;42.136;24.534;2022-08-03T12:16:45;99354.86;;;33.64;28.14
73645;BME280;61940;42.136;24.534;2022-08-03T12:19:08;99354.16;;;33.73;27.99
73645;BME280;61940;42.136;24.534;2022-08-03T12:21:38;99351.06;;;33.69;27.95
73645;BME280;61940;42.136;24.534;2022-08-03T12:24:03;99349.40;;;33.49;27.73
73645;BME280;61940;42.136;24.534;2022-08-03T12:26:28;99351.72;;;33.40;27.91
73645;BME280;61940;42.136;24.534;2022-08-03T12:28:53;99348.88;;;33.40;28.58
73645;BME280;61940;42.136;24.534;2022-08-03T12:31:20;99345.83;;;33.60;28.51
73645;BME280;61940;42.136;24.534;2022-08-03T12:36:18;99345.81;;;33.74;27.92
73645;BME280;61940;42.136;24.534;2022-08-03T12:38:44;99347.96;;;33.76;28.37
73645;BME280;61940;42.136;24.534;2022-08-03T12:41:10;99349.16;;;33.77;27.61
73645;BME280;61940;42.136;24.534;2022-08-03T12:43:36;99341.33;;;33.75;27.55
73645;BME280;61940;42.136;24.534;2022-08-03T12:46:06;99341.78;;;33.92;27.14
73645;BME280;61940;42.136;24.534;2022-08-03T12:48:32;99334.78;;;33.89;27.33
73645;BME280;61940;42.136;24.534;2022-08-03T12:53:30;99336.35;;;34.09;27.33
73645;BME280;61940;42.136;24.534;2022-08-03T12:56:00;99328.02;;;33.78;27.11
73645;BME280;61940;42.136;24.534;2022-08-03T12:58:28;99335.99;;;33.37;27.60
73645;BME280;61940;42.136;24.534;2022-08-03T13:06:11;99335.75;;;33.19;28.53
73645;BME280;61940;42.136;24.534;2022-08-03T13:08:36;99334.39;;;33.36;28.70
73645;BME280;61940;42.136;24.534;2022-08-03T13:13:37;99328.38;;;33.59;28.58
73645;BME280;61940;42.136;24.534;2022-08-03T13:16:03;99327.90;;;33.63;28.28
73645;BME280;61940;42.136;24.534;2022-08-03T13:18:29;99327.44;;;33.58;28.21
73645;BME280;61940;42.136;24.534;2022-08-03T13:20:55;99328.78;;;33.60;27.88
73645;BME280;61940;42.136;24.534;2022-08-03T13:23:21;99327.39;;;33.66;28.34